Time;durP1;ratioP1;P1;durP2;ratioP2;P2;SDS_P1;SDS_P2;PMS_P1;PMS_P2;Temp;Humidity;BMP_temperature;BMP_pressure;BME280_temperature;BME280_humidity;BME280_pressure;Samples;Min_cycle;Max_cycle;Signal;HPM_P1;HPM_P2
2023/01/14 00:01:03;;;;;;;;;;;;;;;18.87;46.44;101181.88;5132996;27;19931;-55
2023/01/14 00:03:30;;;;;;;;;;;;;;;18.88;46.34;101177.19;5133857;27;19932;-55
2023/01/14 00:05:56;;;;;;;;;;;;;;;18.88;46.47;101182.72;5134497;27;19923;-55
2023/01/14 00:08:21;;;;;;;;;;;;;;;18.86;46.28;101169.16;5131092;27;19930;-56
2023/01/14 00:10:47;;;;;;;;;;;;;;;18.88;46.36;101177.19;5132559;28;19992;-56
2023/01/14 00:13:12;;;;;;;;;;;;;;;18.87;46.65;101175.50;5131563;27;19927;-54
2023/01/14 00:15:38;;;;;;;;;;;;;;;18.87;46.28;101186.53;5131645;28;20349;-56
2023/01/14 00:18:04;;;;;;;;;;;;;;;18.87;46.51;101190.16;5132207;28;19939;-55
2023/01/14 00:20:30;;;;;;;;;;;;;;;18.88;46.44;101193.75;5132495;27;19927;-55
2023/01/14 00:22:56;;;;;;;;;;;;;;;18.87;46.62;101187.41;5132135;28;19946;-55
2023/01/14 00:25:21;;;;;;;;;;;;;;;18.88;46.27;101202.03;5131792;28;20322;-56
2023/01/14 00:27:47;;;;;;;;;;;;;;;18.87;46.57;101189.31;5124316;28;19972;-55
2023/01/14 00:30:13;;;;;;;;;;;;;;;18.86;46.28;101184.88;5111530;28;19939;-56
2023/01/14 00:32:38;;;;;;;;;;;;;;;18.87;46.40;101187.41;5111192;28;19928;-56
2023/01/14 00:35:04;;;;;;;;;;;;;;;18.87;46.47;101192.06;5111504;28;19928;-54
2023/01/14 00:37:29;;;;;;;;;;;;;;;18.87;46.31;101184.63;5111436;28;19950;-56
2023/01/14 00:39:55;;;;;;;;;;;;;;;18.88;46.42;101199.25;5111471;28;19931;-52
2023/01/14 00:42:20;;;;;;;;;;;;;;;18.86;46.31;101193.16;5111360;28;19924;-55
2023/01/14 00:44:46;;;;;;;;;;;;;;;18.86;46.50;101198.69;5111345;28;19924;-54
2023/01/14 00:47:12;;;;;;;;;;;;;;;18.86;46.66;101201.44;5110849;28;20300;-55
2023/01/14 00:49:37;;;;;;;;;;;;;;;18.86;46.28;101204.22;5111186;28;19934;-56
2023/01/14 00:52:03;;;;;;;;;;;;;;;18.86;46.23;101204.22;5111082;28;19928;-55
2023/01/14 00:54:28;;;;;;;;;;;;;;;18.87;46.38;101214.13;5110639;28;19967;-55
2023/01/14 00:56:56;;;;;;;;;;;;;;;18.86;46.42;101218.84;5130916;27;19930;-55
2023/01/14 00:59:22;;;;;;;;;;;;;;;18.86;46.27;101209.72;5111249;28;19975;-55
2023/01/14 01:01:51;;;;;;;;;;;;;;;18.86;46.45;101213.31;5093039;28;19931;-55
2023/01/14 01:04:17;;;;;;;;;;;;;;;18.86;46.28;101210.56;5110904;28;20019;-55
2023/01/14 01:06:43;;;;;;;;;;;;;;;18.86;46.30;101196.75;5092562;28;19923;-55
2023/01/14 01:09:08;;;;;;;;;;;;;;;18.87;46.47;101200.34;5101542;28;19923;-55
2023/01/14 01:11:34;;;;;;;;;;;;;;;18.85;46.64;101195.09;5131493;28;20377;-55
2023/01/14 01:13:59;;;;;;;;;;;;;;;18.86;46.59;101204.22;5131464;28;19934;-54
2023/01/14 01:16:25;;;;;;;;;;;;;;;18.86;46.66;101204.22;5131543;28;19946;-54
2023/01/14 01:18:52;;;;;;;;;;;;;;;18.87;46.44;101203.97;5112491;28;19924;-54
2023/01/14 01:21:17;;;;;;;;;;;;;;;18.86;46.29;101201.44;5118877;27;19954;-55
2023/01/14 01:23:43;;;;;;;;;;;;;;;18.85;46.28;101206.16;5128870;27;19952;-54
2023/01/14 01:26:11;;;;;;;;;;;;;;;18.85;46.58;101203.38;5130447;28;19967;-55
2023/01/14 01:28:37;;;;;;;;;;;;;;;18.86;46.65;101201.44;5121526;28;20392;-55
2023/01/14 01:31:03;;;;;;;;;;;;;;;18.85;46.39;101206.16;5130632;28;19981;-55
2023/01/14 01:33:29;;;;;;;;;;;;;;;18.86;46.43;101213.31;5130609;28;19927;-54
2023/01/14 01:36:04;;;;;;;;;;;;;;;18.85;46.37;101214.41;5131104;28;19977;-55
2023/01/14 01:38:29;;;;;;;;;;;;;;;18.85;46.54;101236.50;5098761;28;19935;-55
2023/01/14 01:40:55;;;;;;;;;;;;;;;18.85;46.33;101236.50;5110510;28;19928;-55
2023/01/14 01:43:21;;;;;;;;;;;;;;;18.85;46.47;101242.03;5092077;28;20014;-55
2023/01/14 01:45:48;;;;;;;;;;;;;;;18.84;46.30;101237.59;5110376;28;19978;-55
2023/01/14 01:48:17;;;;;;;;;;;;;;;18.85;46.58;101228.22;5110032;28;19977;-55
2023/01/14 01:50:43;;;;;;;;;;;;;;;18.85;46.28;101235.66;5110345;28;20041;-55
2023/01/14 01:53:08;;;;;;;;;;;;;;;18.84;46.65;101232.09;5091571;28;19967;-55
2023/01/14 01:55:34;;;;;;;;;;;;;;;18.85;46.31;101230.16;5109634;28;19972;-56
2023/01/14 01:58:01;;;;;;;;;;;;;;;18.84;46.40;101229.31;5130309;27;19942;-55
2023/01/14 02:00:27;;;;;;;;;;;;;;;18.84;46.31;101228.50;5130269;28;20287;-56
2023/01/14 02:02:54;;;;;;;;;;;;;;;18.85;46.29;101224.63;5112305;28;19923;-55
2023/01/14 02:05:20;;;;;;;;;;;;;;;18.85;46.57;101221.88;5130477;28;19959;-55
2023/01/14 02:07:45;;;;;;;;;;;;;;;18.84;46.45;101222.97;5104723;28;19932;-55
2023/01/14 02:10:11;;;;;;;;;;;;;;;18.85;46.58;101219.13;5110054;28;19930;-55
2023/01/14 02:12:38;;;;;;;;;;;;;;;18.84;46.24;101207.25;5109881;28;19924;-55
2023/01/14 02:15:24;;;;;;;;;;;;;;;18.84;46.51;101204.50;5109842;28;19927;-54
2023/01/14 02:18:09;;;;;;;;;;;;;;;18.85;46.35;101208.06;5094563;28;20324;-55
2023/01/14 02:20:37;;;;;;;;;;;;;;;18.84;46.46;101209.19;5093927;28;20012;-55
2023/01/14 02:23:23;;;;;;;;;;;;;;;18.84;46.53;101207.25;5110894;27;19972;-56
2023/01/14 02:26:08;;;;;;;;;;;;;;;18.84;46.63;101212.78;5134813;27;20234;-54
2023/01/14 02:28:39;;;;;;;;;;;;;;;18.83;46.71;101222.16;5120623;28;19950;-55
2023/01/14 02:31:23;;;;;;;;;;;;;;;18.85;46.36;101224.63;5129800;28;19934;-54
2023/01/14 02:33:53;;;;;;;;;;;;;;;18.84;46.50;101228.50;5130240;28;19942;-55
2023/01/14 02:36:24;;;;;;;;;;;;;;;18.83;46.46;101222.16;5129977;27;19923;-55
2023/01/14 02:38:54;;;;;;;;;;;;;;;18.84;46.53;101212.78;5130046;28;19973;-55
2023/01/14 02:44:06;;;;;;;;;;;;;;;18.83;46.52;101208.34;5130165;28;19967;-54
2023/01/14 02:44:11;;;;;;;;;;;;;;;18.84;46.32;101200.91;5114670;28;19924;-55
2023/01/14 02:46:38;;;;;;;;;;;;;;;18.83;46.33;101194.56;5130068;28;20371;-55
2023/01/14 02:49:04;;;;;;;;;;;;;;;18.84;46.29;101200.91;5129693;28;19923;-56
2023/01/14 02:51:30;;;;;;;;;;;;;;;18.83;46.35;101197.31;5111503;28;19980;-55
2023/01/14 02:53:56;;;;;;;;;;;;;;;18.84;46.33;101187.09;5129443;28;20402;-55
2023/01/14 02:56:22;;;;;;;;;;;;;;;18.84;46.39;101181.59;5134555;27;20187;-55
2023/01/14 02:59:05;;;;;;;;;;;;;;;18.83;46.37;101180.75;5117830;27;19927;-54
2023/01/14 03:01:37;;;;;;;;;;;;;;;18.84;46.33;101165.03;5091037;28;19930;-55
2023/01/14 03:04:10;;;;;;;;;;;;;;;18.83;46.45;101164.22;5109291;28;20374;-55
2023/01/14 03:06:55;;;;;;;;;;;;;;;18.84;46.38;101154.00;5091203;28;20370;-55
2023/01/14 03:09:25;;;;;;;;;;;;;;;18.84;46.38;101145.72;5105632;28;19931;-55
2023/01/14 03:12:10;;;;;;;;;;;;;;;18.83;46.49;101138.56;5129804;28;19927;-55
2023/01/14 03:14:38;;;;;;;;;;;;;;;18.84;46.45;101131.91;5114130;28;19927;-55
2023/01/14 03:17:06;;;;;;;;;;;;;;;18.83;46.42;101131.09;5129565;28;19972;-54
2023/01/14 03:19:34;;;;;;;;;;;;;;;18.83;46.51;101130.28;5129491;28;20367;-54
2023/01/14 03:22:00;;;;;;;;;;;;;;;18.83;46.60;101124.75;5111210;28;19927;-55
2023/01/14 03:24:29;;;;;;;;;;;;;;;18.83;46.41;101142.13;5129639;27;19923;-55
2023/01/14 03:26:55;;;;;;;;;;;;;;;18.83;46.67;101131.09;5127937;27;19924;-55
2023/01/14 03:29:23;;;;;;;;;;;;;;;18.83;46.53;101127.50;5108584;28;19927;-55
2023/01/14 03:31:52;;;;;;;;;;;;;;;18.84;46.57;101129.16;5090117;28;19924;-55
2023/01/14 03:34:19;;;;;;;;;;;;;;;18.83;46.37;101124.75;5090663;28;19934;-54
2023/01/14 03:36:47;;;;;;;;;;;;;;;18.83;46.69;101131.09;5108791;28;20284;-55
2023/01/14 03:39:15;;;;;;;;;;;;;;;18.83;46.64;101127.50;5108805;28;19934;-54
2023/01/14 03:42:37;;;;;;;;;;;;;;;18.83;46.43;101124.75;5090265;28;20455;-54
2023/01/14 03:44:30;;;;;;;;;;;;;;;18.83;46.49;101119.25;5093407;28;19932;-55
2023/01/14 03:46:56;;;;;;;;;;;;;;;18.82;46.46;101121.13;5108832;28;20308;-54
2023/01/14 03:49:22;;;;;;;;;;;;;;;18.82;46.56;101112.84;5111641;28;19931;-55
2023/01/14 03:51:49;;;;;;;;;;;;;;;18.81;46.59;101111.22;5112273;28;19928;-56
2023/01/14 03:54:18;;;;;;;;;;;;;;;18.82;46.73;101109.28;5111542;28;19924;-56
2023/01/14 03:56:54;;;;;;;;;;;;;;;18.83;46.39;101122.00;5111805;27;19955;-55
2023/01/14 03:59:21;;;;;;;;;;;;;;;18.83;46.37;101110.97;5131889;28;20070;-53
2023/01/14 04:01:47;;;;;;;;;;;;;;;18.83;46.43;101111.78;5132550;28;20180;-54
2023/01/14 04:04:13;;;;;;;;;;;;;;;18.82;46.43;101096.31;5132006;28;19928;-54
2023/01/14 04:06:39;;;;;;;;;;;;;;;18.83;46.71;101099.91;5113936;28;19950;-54
2023/01/14 04:09:05;;;;;;;;;;;;;;;18.82;46.55;101096.31;5113216;28;20637;-55
2023/01/14 04:11:30;;;;;;;;;;;;;;;18.82;46.50;101087.19;5132438;28;19986;-55
2023/01/14 04:16:41;;;;;;;;;;;;;;;18.81;46.53;101089.13;5116888;28;19995;-55
2023/01/14 04:19:07;;;;;;;;;;;;;;;18.82;46.47;101089.97;5132067;28;19923;-55
2023/01/14 04:21:32;;;;;;;;;;;;;;;18.82;46.41;101087.19;5132051;28;20286;-52
2023/01/14 04:23:58;;;;;;;;;;;;;;;18.81;46.60;101072.59;5131868;28;19923;-55
2023/01/14 04:26:24;;;;;;;;;;;;;;;18.82;46.55;101070.66;5132497;27;20276;-55
2023/01/14 04:28:49;;;;;;;;;;;;;;;18.82;46.44;101065.94;5122603;27;19939;-55
2023/01/14 04:31:15;;;;;;;;;;;;;;;18.82;46.37;101060.44;5131767;28;19931;-55
2023/01/14 04:33:40;;;;;;;;;;;;;;;18.82;46.55;101052.16;5131876;28;19935;-55
2023/01/14 04:36:07;;;;;;;;;;;;;;;18.80;46.45;101055.19;5131739;28;19931;-56
2023/01/14 04:38:32;;;;;;;;;;;;;;;18.82;46.55;101045.81;5117974;28;19924;-55
2023/01/14 04:40:58;;;;;;;;;;;;;;;18.81;46.61;101039.47;5111106;28;19924;-55
2023/01/14 04:43:23;;;;;;;;;;;;;;;18.81;46.74;101036.72;5111464;28;19931;-55
2023/01/14 04:45:49;;;;;;;;;;;;;;;18.80;46.79;101022.09;5093130;28;20023;-54
2023/01/14 04:48:15;;;;;;;;;;;;;;;18.82;46.73;101024.56;5092831;28;19928;-55
2023/01/14 04:50:44;;;;;;;;;;;;;;;18.82;46.43;101015.47;5111205;28;19924;-55
2023/01/14 04:53:10;;;;;;;;;;;;;;;18.83;46.53;101011.63;5111314;28;19973;-55
2023/01/14 04:55:37;;;;;;;;;;;;;;;18.83;46.40;101014.38;5110424;27;19949;-54
2023/01/14 04:58:03;;;;;;;;;;;;;;;18.82;46.75;101009.94;5114825;28;19924;-54
2023/01/14 05:00:29;;;;;;;;;;;;;;;18.80;46.45;101005.53;5092502;28;19930;-55
2023/01/14 05:02:54;;;;;;;;;;;;;;;18.82;46.52;101004.44;5111218;28;19935;-55
2023/01/14 05:05:20;;;;;;;;;;;;;;;18.82;46.42;100996.16;5111127;28;19934;-55
2023/01/14 05:07:46;;;;;;;;;;;;;;;18.81;46.49;100995.31;5110587;28;20315;-54
2023/01/14 05:10:11;;;;;;;;;;;;;;;18.82;46.64;100993.38;5110436;28;19927;-56
2023/01/14 05:12:37;;;;;;;;;;;;;;;18.81;46.59;100989.81;5111024;28;20378;-56
2023/01/14 05:15:03;;;;;;;;;;;;;;;18.82;46.55;100990.63;5111115;28;19931;-54
2023/01/14 05:17:29;;;;;;;;;;;;;;;18.81;46.48;100987.03;5110920;28;19967;-55
2023/01/14 05:19:54;;;;;;;;;;;;;;;18.81;46.58;100978.78;5110629;28;19962;-55
2023/01/14 05:22:20;;;;;;;;;;;;;;;18.80;46.71;100977.94;5110868;28;19924;-56
2023/01/14 05:24:45;;;;;;;;;;;;;;;18.82;46.60;100974.06;5110521;28;19935;-54
2023/01/14 05:27:11;;;;;;;;;;;;;;;18.80;46.71;100977.94;5110673;28;19927;-55
2023/01/14 05:29:38;;;;;;;;;;;;;;;18.81;46.49;100970.50;5134877;27;19927;-55
2023/01/14 05:32:04;;;;;;;;;;;;;;;18.80;46.50;100968.84;5130753;28;19989;-56
2023/01/14 05:34:30;;;;;;;;;;;;;;;18.81;46.51;100973.25;5130892;28;20323;-54
2023/01/14 05:36:56;;;;;;;;;;;;;;;18.81;46.79;100970.50;5130906;28;19966;-54
2023/01/14 05:39:22;;;;;;;;;;;;;;;18.81;46.54;100953.94;5110438;28;19934;-55
2023/01/14 05:47:18;;;;;;;;;;;;;;;18.80;46.53;100938.50;5094971;28;20287;-55
2023/01/14 05:49:44;;;;;;;;;;;;;;;18.80;46.82;100931.03;5110366;28;19924;-56
2023/01/14 05:52:09;;;;;;;;;;;;;;;18.80;46.64;100924.69;5110410;28;19927;-55
2023/01/14 05:54:35;;;;;;;;;;;;;;;18.80;46.56;100920.00;5109813;28;19927;-55
2023/01/14 05:57:00;;;;;;;;;;;;;;;18.80;46.94;100919.19;5132393;27;19923;-56
2023/01/14 05:59:26;;;;;;;;;;;;;;;18.80;46.48;100911.72;5110087;28;19931;-56
2023/01/14 06:07:23;;;;;;;;;;;;;;;18.80;46.84;100897.94;5094768;28;20329;-55
2023/01/14 06:09:49;;;;;;;;;;;;;;;18.80;46.51;100902.63;5109983;28;19986;-55
2023/01/14 06:12:33;;;;;;;;;;;;;;;18.80;46.58;100892.41;5109541;28;19924;-55
2023/01/14 06:15:00;;;;;;;;;;;;;;;18.80;46.61;100892.41;5094633;28;19923;-55
2023/01/14 06:17:34;;;;;;;;;;;;;;;18.80;46.58;100881.38;5109222;28;19934;-55
2023/01/14 06:19:59;;;;;;;;;;;;;;;18.79;46.60;100865.94;5110073;28;19923;-55
2023/01/14 06:22:25;;;;;;;;;;;;;;;18.80;46.71;100864.81;5110039;28;20268;-55
2023/01/14 06:24:50;;;;;;;;;;;;;;;18.80;46.55;100858.47;5109925;28;20162;-55
2023/01/14 06:27:16;;;;;;;;;;;;;;;18.79;46.57;100849.38;5109479;28;19924;-55
2023/01/14 06:29:42;;;;;;;;;;;;;;;18.80;46.86;100847.44;5115095;27;19932;-55
2023/01/14 06:32:07;;;;;;;;;;;;;;;18.80;46.69;100848.28;5129948;27;19930;-55
2023/01/14 06:34:33;;;;;;;;;;;;;;;18.79;46.77;100837.53;5129761;28;19924;-54
2023/01/14 06:36:58;;;;;;;;;;;;;;;18.80;46.75;100845.50;5129934;28;19924;-56
2023/01/14 06:39:24;;;;;;;;;;;;;;;18.80;46.75;100834.47;5109449;28;19951;-55
2023/01/14 06:41:50;;;;;;;;;;;;;;;18.79;46.74;100832.84;5109383;28;19932;-55
2023/01/14 06:44:17;;;;;;;;;;;;;;;18.79;46.59;100824.56;5109648;28;20398;-55
2023/01/14 06:46:42;;;;;;;;;;;;;;;18.79;46.53;100816.28;5109757;28;19973;-55
2023/01/14 06:49:08;;;;;;;;;;;;;;;18.79;46.78;100809.94;5109571;28;19923;-55
2023/01/14 06:51:33;;;;;;;;;;;;;;;18.79;46.93;100802.47;5109281;28;19949;-55
2023/01/14 06:53:59;;;;;;;;;;;;;;;18.80;46.58;100806.06;5109199;28;20291;-55
2023/01/14 06:56:24;;;;;;;;;;;;;;;18.79;46.90;100798.91;5130023;27;19934;-55
2023/01/14 06:58:50;;;;;;;;;;;;;;;18.80;46.61;100790.34;5118682;27;20405;-55
2023/01/14 07:01:16;;;;;;;;;;;;;;;18.80;46.77;100784.00;5108918;28;19952;-55
2023/01/14 07:03:42;;;;;;;;;;;;;;;18.79;46.76;100780.41;5091104;28;19947;-56
2023/01/14 07:06:07;;;;;;;;;;;;;;;18.79;46.61;100768.56;5109336;28;19931;-55
2023/01/14 07:08:33;;;;;;;;;;;;;;;18.79;46.59;100768.56;5109192;28;19927;-55
2023/01/14 07:10:59;;;;;;;;;;;;;;;18.79;46.59;100757.53;5108842;28;20364;-55
2023/01/14 07:13:24;;;;;;;;;;;;;;;18.79;46.78;100760.28;5109421;28;19924;-55
2023/01/14 07:15:51;;;;;;;;;;;;;;;18.79;46.59;100750.06;5109137;28;20317;-54
2023/01/14 07:18:17;;;;;;;;;;;;;;;18.79;46.68;100743.72;5109314;28;19924;-55
2023/01/14 07:20:43;;;;;;;;;;;;;;;18.79;46.60;100743.72;5090835;28;20076;-56
2023/01/14 07:23:09;;;;;;;;;;;;;;;18.79;46.74;100736.28;5110446;28;20389;-55
2023/01/14 07:25:35;;;;;;;;;;;;;;;18.79;46.81;100732.69;5093694;28;19924;-55
2023/01/14 07:28:01;;;;;;;;;;;;;;;18.79;46.89;100727.16;5112729;28;20014;-55
2023/01/14 07:30:26;;;;;;;;;;;;;;;18.78;46.60;100720.84;5112907;28;20012;-55
2023/01/14 07:32:52;;;;;;;;;;;;;;;18.79;46.72;100718.91;5131818;27;19985;-55
2023/01/14 07:35:17;;;;;;;;;;;;;;;18.79;46.66;100713.38;5133131;28;20374;-55
2023/01/14 07:37:43;;;;;;;;;;;;;;;18.79;46.59;100705.09;5125868;28;19927;-55
2023/01/14 07:40:09;;;;;;;;;;;;;;;18.78;46.69;100696.00;5112427;28;19935;-54
2023/01/14 07:42:34;;;;;;;;;;;;;;;18.79;46.60;100685.78;5112671;28;20147;-55
2023/01/14 07:45:00;;;;;;;;;;;;;;;18.79;46.84;100674.75;5112293;28;19928;-56
2023/01/14 07:47:26;;;;;;;;;;;;;;;18.79;46.60;100674.75;5112351;28;20304;-55
2023/01/14 07:49:51;;;;;;;;;;;;;;;18.79;46.71;100666.47;5112175;28;19930;-54
2023/01/14 07:55:45;;;;;;;;;;;;;;;18.78;46.92;100662.91;5128026;27;20322;-55
2023/01/14 07:58:11;;;;;;;;;;;;;;;18.78;46.69;100667.56;5131676;27;20390;-55
2023/01/14 08:00:37;;;;;;;;;;;;;;;18.78;46.64;100662.03;5111666;28;19993;-55
2023/01/14 08:03:02;;;;;;;;;;;;;;;18.78;46.78;100653.75;5112270;28;19930;-55
2023/01/14 08:05:28;;;;;;;;;;;;;;;18.79;46.71;100649.91;5112154;28;19957;-55
2023/01/14 08:07:53;;;;;;;;;;;;;;;18.78;46.92;100651.00;5112042;28;19936;-55
2023/01/14 08:10:19;;;;;;;;;;;;;;;18.79;46.67;100647.16;5112080;28;19924;-55
2023/01/14 08:12:45;;;;;;;;;;;;;;;18.78;46.80;100632.53;5112109;28;19994;-55
2023/01/14 08:15:11;;;;;;;;;;;;;;;18.78;46.66;100629.78;5112135;28;19939;-55
2023/01/14 08:17:37;;;;;;;;;;;;;;;18.78;46.96;100620.66;5111463;28;20367;-55
2023/01/14 08:20:03;;;;;;;;;;;;;;;18.77;46.94;100614.31;5111913;28;20386;-55
2023/01/14 08:22:29;;;;;;;;;;;;;;;18.78;46.92;100604.97;5111908;28;20311;-56
2023/01/14 08:24:54;;;;;;;;;;;;;;;18.77;46.77;100600.53;5111323;28;19928;-55
2023/01/14 08:27:20;;;;;;;;;;;;;;;18.77;46.80;100595.00;5111671;28;19927;-55
2023/01/14 08:29:45;;;;;;;;;;;;;;;18.78;46.67;100593.06;5112563;28;19935;-56
2023/01/14 08:32:12;;;;;;;;;;;;;;;18.77;46.85;100581.22;5111830;28;20288;-54
2023/01/14 08:34:37;;;;;;;;;;;;;;;18.78;46.60;100582.03;5128753;27;20005;-54
2023/01/14 08:37:03;;;;;;;;;;;;;;;18.78;46.77;100576.53;5131362;28;19924;-55
2023/01/14 08:39:28;;;;;;;;;;;;;;;18.77;46.94;100569.38;5111714;28;19976;-54
2023/01/14 08:41:54;;;;;;;;;;;;;;;18.76;46.57;100568.53;5111578;28;19950;-55
2023/01/14 08:44:19;;;;;;;;;;;;;;;18.77;46.61;100561.91;5111673;28;19928;-55
2023/01/14 08:46:45;;;;;;;;;;;;;;;18.77;46.58;100561.09;5111480;28;20371;-55
2023/01/14 08:49:11;;;;;;;;;;;;;;;18.76;46.58;100540.97;5111291;28;19932;-55
2023/01/14 08:51:37;;;;;;;;;;;;;;;18.76;46.78;100526.34;5111330;28;19975;-55
2023/01/14 08:54:02;;;;;;;;;;;;;;;18.78;46.59;100524.09;5110910;28;19924;-56
2023/01/14 08:56:28;;;;;;;;;;;;;;;18.77;46.61;100511.44;5139431;27;20358;-55
2023/01/14 08:58:53;;;;;;;;;;;;;;;18.76;46.81;100513.38;5120497;27;20125;-54
2023/01/14 09:01:19;;;;;;;;;;;;;;;18.76;46.76;100501.50;5110549;28;19935;-54
2023/01/14 09:03:46;;;;;;;;;;;;;;;18.77;46.81;100492.13;5111228;28;19930;-52
2023/01/14 09:06:13;;;;;;;;;;;;;;;18.76;46.54;100485.78;5111276;28;19924;-52
2023/01/14 09:17:09;;;;;;;;;;;;;;;18.76;46.87;100462.91;5081481;28;19932;-53
2023/01/14 09:19:39;;;;;;;;;;;;;;;18.76;46.75;100452.69;5093916;28;19967;-52
2023/01/14 09:22:05;;;;;;;;;;;;;;;18.77;46.63;100450.75;5092451;28;19924;-52
2023/01/14 09:24:30;;;;;;;;;;;;;;;18.77;46.61;100436.94;5110392;28;19932;-52
2023/01/14 09:26:56;;;;;;;;;;;;;;;18.76;46.56;100429.78;5110689;28;19972;-52
2023/01/14 09:29:22;;;;;;;;;;;;;;;18.76;46.62;100427.03;5110713;28;19932;-53
2023/01/14 09:31:47;;;;;;;;;;;;;;;18.76;46.56;100421.53;5110848;28;19924;-52
2023/01/14 09:34:13;;;;;;;;;;;;;;;18.76;46.74;100422.34;5110085;28;19931;-51
2023/01/14 09:36:38;;;;;;;;;;;;;;;18.76;46.70;100413.25;5129774;27;20279;-52
2023/01/14 09:39:04;;;;;;;;;;;;;;;18.76;46.88;100411.31;5112891;28;19923;-52
2023/01/14 09:41:30;;;;;;;;;;;;;;;18.77;46.90;100412.13;5110494;28;19924;-52
2023/01/14 09:43:56;;;;;;;;;;;;;;;18.76;46.52;100404.97;5110534;28;20405;-53
2023/01/14 09:46:23;;;;;;;;;;;;;;;18.76;46.56;100392.00;5109627;28;19927;-48
2023/01/14 09:48:48;;;;;;;;;;;;;;;18.76;46.70;100377.38;5091893;28;19947;-52
2023/01/14 09:51:34;;;;;;;;;;;;;;;18.75;46.57;100357.25;5110388;28;20363;-50
2023/01/14 09:54:18;;;;;;;;;;;;;;;18.75;46.65;100339.88;5094856;28;19969;-52
2023/01/14 09:56:45;;;;;;;;;;;;;;;18.75;46.64;100348.97;5124650;27;19986;-52
2023/01/14 09:59:16;;;;;;;;;;;;;;;18.75;46.55;100337.13;5113199;27;19931;-51
2023/01/14 10:01:52;;;;;;;;;;;;;;;18.75;46.61;100332.44;5110162;28;19927;-52
2023/01/14 10:04:39;;;;;;;;;;;;;;;18.75;46.65;100331.59;5110445;28;19926;-52
2023/01/14 10:07:04;;;;;;;;;;;;;;;18.75;46.81;100323.34;5094789;28;20521;-53
2023/01/14 10:09:32;;;;;;;;;;;;;;;18.75;46.78;100318.63;5110121;28;19939;-51
2023/01/14 10:11:59;;;;;;;;;;;;;;;18.75;46.89;100309.53;5091834;28;19963;-51
2023/01/14 10:14:26;;;;;;;;;;;;;;;18.75;46.57;100309.53;5109756;28;20354;-52
2023/01/14 10:16:54;;;;;;;;;;;;;;;18.75;46.56;100304.84;5109910;28;19974;-52
2023/01/14 10:19:23;;;;;;;;;;;;;;;18.75;46.66;100290.22;5109859;28;19923;-52
2023/01/14 10:21:49;;;;;;;;;;;;;;;18.75;46.56;100293.00;5110005;28;20427;-53
2023/01/14 10:24:16;;;;;;;;;;;;;;;18.75;46.84;100290.22;5109688;28;19958;-51
2023/01/14 10:26:43;;;;;;;;;;;;;;;18.75;46.73;100284.72;5109466;28;19928;-52
2023/01/14 10:29:11;;;;;;;;;;;;;;;18.75;46.53;100271.75;5109663;28;19966;-52
2023/01/14 10:31:37;;;;;;;;;;;;;;;18.74;46.55;100272.88;5109921;28;19959;-53
2023/01/14 10:34:03;;;;;;;;;;;;;;;18.74;46.80;100267.34;5109811;28;19966;-52
2023/01/14 10:36:30;;;;;;;;;;;;;;;18.74;46.82;100253.56;5114069;27;19923;-50
2023/01/14 10:38:55;;;;;;;;;;;;;;;18.74;46.68;100241.72;5126643;27;20279;-52
2023/01/14 10:41:48;;;;;;;;;;;;;;;18.75;46.59;100243.34;5091032;28;20229;-52
2023/01/14 10:44:12;;;;;;;;;;;;;;;18.74;46.54;100238.94;5094413;28;19924;-50
2023/01/14 10:46:38;;;;;;;;;;;;;;;18.74;46.66;100230.66;5091064;28;20387;-52
2023/01/14 10:49:20;;;;;;;;;;;;;;;18.74;46.61;100234.25;5109477;28;20479;-52
2023/01/14 10:51:53;;;;;;;;;;;;;;;18.74;46.68;100227.91;5109561;28;19927;-52
2023/01/14 10:54:20;;;;;;;;;;;;;;;18.73;46.57;100216.03;5112389;27;20379;-52
2023/01/14 10:56:50;;;;;;;;;;;;;;;18.75;46.61;100218.50;5132958;27;19966;-52
2023/01/14 10:59:36;;;;;;;;;;;;;;;18.74;46.64;100208.59;5116578;27;20383;-52
2023/01/14 11:02:01;;;;;;;;;;;;;;;18.74;46.89;100206.66;5097957;28;19940;-52
2023/01/14 11:04:45;;;;;;;;;;;;;;;18.74;46.54;100189.28;5113275;28;19928;-53
2023/01/14 11:07:12;;;;;;;;;;;;;;;18.74;46.83;100170.81;5112855;28;20235;-53
2023/01/14 11:09:37;;;;;;;;;;;;;;;18.74;46.91;100159.78;5094063;28;19971;-52
2023/01/14 11:12:03;;;;;;;;;;;;;;;18.74;46.58;100164.47;5112880;28;19931;-51
2023/01/14 11:14:31;;;;;;;;;;;;;;;18.73;46.56;100138.81;5112402;28;19973;-52
2023/01/14 11:16:57;;;;;;;;;;;;;;;18.73;46.59;100138.81;5094693;28;19959;-52
2023/01/14 11:19:24;;;;;;;;;;;;;;;18.73;46.82;100127.75;5112878;28;19963;-50
2023/01/14 11:21:52;;;;;;;;;;;;;;;18.74;46.56;100106.56;5094633;28;19924;-52
2023/01/14 11:24:21;;;;;;;;;;;;;;;18.73;46.80;100108.47;5112768;28;19927;-52
2023/01/14 11:26:46;;;;;;;;;;;;;;;18.73;46.88;100110.41;5112929;28;19927;-51
2023/01/14 11:29:15;;;;;;;;;;;;;;;18.73;46.79;100102.94;5113609;28;19958;-52
2023/01/14 11:31:41;;;;;;;;;;;;;;;18.73;46.86;100096.63;5112998;28;19927;-52
2023/01/14 11:34:17;;;;;;;;;;;;;;;18.73;46.71;100088.34;5112511;28;19935;-52
2023/01/14 11:36:42;;;;;;;;;;;;;;;18.72;46.79;100073.72;5112422;28;20559;-52
2023/01/14 11:39:11;;;;;;;;;;;;;;;18.72;46.84;100068.22;5123362;27;20386;-52
2023/01/14 11:41:37;;;;;;;;;;;;;;;18.72;46.72;100062.69;5133077;28;19967;-51
2023/01/14 11:44:04;;;;;;;;;;;;;;;18.73;46.73;100046.97;5133146;28;19995;-52
2023/01/14 11:46:33;;;;;;;;;;;;;;;18.73;46.87;100036.75;5132503;28;19970;-52
2023/01/14 11:49:00;;;;;;;;;;;;;;;18.73;46.55;100028.47;5115943;28;19928;-53
2023/01/14 11:51:27;;;;;;;;;;;;;;;18.72;46.82;100026.03;5093906;28;19976;-53
2023/01/14 11:53:53;;;;;;;;;;;;;;;18.72;46.75;100024.09;5119058;27;19927;-51
2023/01/14 11:56:31;;;;;;;;;;;;;;;18.72;46.90;100026.84;5132989;27;19983;-51
2023/01/14 11:58:56;;;;;;;;;;;;;;;18.71;46.69;100014.19;5103209;28;19934;-52
2023/01/14 12:01:27;;;;;;;;;;;;;;;18.73;46.77;100013.88;5093517;28;20010;-51
2023/01/14 12:03:57;;;;;;;;;;;;;;;18.72;46.56;100007.53;5112142;28;19924;-51
2023/01/14 12:06:24;;;;;;;;;;;;;;;18.73;46.85;100000.06;5112064;28;19924;-52
2023/01/14 12:08:50;;;;;;;;;;;;;;;18.72;46.86;99988.22;5111321;28;19923;-52
2023/01/14 12:11:17;;;;;;;;;;;;;;;18.71;46.82;99992.13;5112173;28;20364;-52
2023/01/14 12:16:49;;;;;;;;;;;;;;;18.71;46.86;99959.00;5096993;28;19924;-52
2023/01/14 12:19:23;;;;;;;;;;;;;;;18.71;46.79;99959.00;5095609;28;19969;-52
2023/01/14 12:21:51;;;;;;;;;;;;;;;18.71;46.92;99955.44;5111184;28;20401;-53
2023/01/14 12:24:35;;;;;;;;;;;;;;;18.72;46.56;99943.28;5093384;28;19947;-50
2023/01/14 12:27:00;;;;;;;;;;;;;;;18.71;46.79;99939.72;5111752;28;19962;-52
2023/01/14 12:29:29;;;;;;;;;;;;;;;18.71;46.83;99938.91;5112460;28;19927;-52
2023/01/14 12:31:59;;;;;;;;;;;;;;;18.71;46.84;99945.22;5111601;28;19927;-51
2023/01/14 12:34:44;;;;;;;;;;;;;;;18.71;46.66;99931.44;5111515;28;19923;-51
2023/01/14 12:37:14;;;;;;;;;;;;;;;18.71;46.76;99925.09;5096289;28;19927;-51
2023/01/14 12:45:46;;;;;;;;;;;;;;;18.71;46.57;99892.00;5137107;27;19955;-52
2023/01/14 12:48:01;;;;;;;;;;;;;;;18.71;46.61;99886.50;5128255;28;20270;-52
2023/01/14 12:50:26;;;;;;;;;;;;;;;18.71;46.69;99878.22;5132013;28;19933;-51
2023/01/14 12:52:52;;;;;;;;;;;;;;;18.71;46.56;99875.47;5131906;28;19972;-51
2023/01/14 12:55:22;;;;;;;;;;;;;;;18.71;46.56;99872.69;5111509;28;19924;-52
2023/01/14 12:57:48;;;;;;;;;;;;;;;18.70;46.99;99860.84;5111279;28;19924;-51
2023/01/14 13:00:19;;;;;;;;;;;;;;;18.70;46.54;99863.63;5092779;28;19966;-50
2023/01/14 13:02:46;;;;;;;;;;;;;;;18.71;46.73;99856.16;5111174;28;20383;-52
2023/01/14 13:05:12;;;;;;;;;;;;;;;18.71;46.68;99851.44;5093019;28;19935;-52
2023/01/14 13:07:45;;;;;;;;;;;;;;;18.70;46.89;99849.81;5111155;28;19928;-53
2023/01/14 13:10:10;;;;;;;;;;;;;;;18.71;46.83;99834.09;5092717;28;19980;-52
2023/01/14 13:12:38;;;;;;;;;;;;;;;18.70;46.63;99827.75;5111203;28;19977;-51
2023/01/14 13:15:06;;;;;;;;;;;;;;;18.70;46.75;99816.72;5110973;28;20008;-53